Time;durP1;ratioP1;P1;durP2;ratioP2;P2;SDS_P1;SDS_P2;PMS_P1;PMS_P2;Temp;Humidity;BMP_temperature;BMP_pressure;BME280_temperature;BME280_humidity;BME280_pressure;Samples;Min_cycle;Max_cycle;Signal;HPM_P1;HPM_P2
2022/01/18 00:02:14;;;;;;;11.23;3.03;;;-1.20;99.90;;;;;;8486098;27;20218;-66
2022/01/18 00:06:15;;;;;;;9.63;1.93;;;-1.20;99.90;;;;;;8485238;27;20177;-66
2022/01/18 00:10:16;;;;;;;5.37;2.30;;;-1.20;99.90;;;;;;8474891;28;20246;-64
2022/01/18 00:14:26;;;;;;;11.90;2.47;;;-1.20;99.90;;;;;;8483239;28;20188;-65
2022/01/18 00:18:28;;;;;;;11.43;2.27;;;-1.20;99.90;;;;;;8485803;28;20216;-65
2022/01/18 00:22:29;;;;;;;10.83;2.97;;;-1.20;99.90;;;;;;8489501;27;20211;-66
2022/01/18 00:26:32;;;;;;;12.53;3.20;;;-1.20;99.90;;;;;;8468495;27;20174;-65
2022/01/18 00:31:05;;;;;;;13.90;2.43;;;-1.20;99.90;;;;;;8478203;27;20189;-65
2022/01/18 00:34:57;;;;;;;13.20;2.70;;;-1.30;99.90;;;;;;8493212;27;20244;-64
2022/01/18 00:38:58;;;;;;;12.53;2.77;;;-1.20;99.90;;;;;;8476512;27;20218;-65
2022/01/18 00:43:02;;;;;;;11.30;2.63;;;-1.20;99.90;;;;;;8492985;27;20237;-65
2022/01/18 00:47:03;;;;;;;11.37;2.73;;;-1.20;99.90;;;;;;8493088;27;20172;-64
2022/01/18 00:51:08;;;;;;;6.33;2.07;;;-1.20;99.90;;;;;;8494371;27;20187;-65
2022/01/18 00:55:13;;;;;;;16.57;3.10;;;-1.20;99.90;;;;;;8508504;27;20292;-67
2022/01/18 00:59:14;;;;;;;12.97;3.40;;;-1.20;99.90;;;;;;8485508;27;20448;-66
2022/01/18 01:03:14;;;;;;;11.67;2.93;;;-1.20;99.90;;;;;;8457868;28;20244;-66
2022/01/18 01:07:21;;;;;;;12.20;3.10;;;-1.20;99.90;;;;;;8458442;27;20279;-66
2022/01/18 01:11:24;;;;;;;14.00;3.13;;;-1.20;99.90;;;;;;8491732;27;20179;-66
2022/01/18 01:15:26;;;;;;;13.10;3.13;;;-1.30;99.90;;;;;;8491765;27;20212;-66
2022/01/18 01:36:44;;;;;;;9.33;2.87;;;-1.10;99.90;;;;;;8481477;27;20185;-66
2022/01/18 01:45:06;;;;;;;18.67;3.80;;;-1.20;99.90;;;;;;8490650;27;20250;-67
2022/01/18 01:49:12;;;;;;;18.03;3.63;;;-1.20;99.90;;;;;;8483222;27;20177;-67
2022/01/18 01:53:14;;;;;;;14.60;2.80;;;-1.20;99.90;;;;;;8487620;27;20291;-66
2022/01/18 01:57:15;;;;;;;18.47;2.93;;;-1.20;99.90;;;;;;8469553;27;20210;-67
2022/01/18 02:01:19;;;;;;;12.27;2.57;;;-1.30;99.90;;;;;;8477270;27;20232;-67
2022/01/18 02:05:21;;;;;;;12.80;2.73;;;-1.30;99.90;;;;;;8480216;27;20204;-67
2022/01/18 02:09:22;;;;;;;8.73;2.83;;;-1.30;99.90;;;;;;8479561;27;20211;-66
2022/01/18 02:13:23;;;;;;;18.70;3.33;;;-1.30;99.90;;;;;;8473397;27;20187;-67
2022/01/18 02:21:46;;;;;;;9.57;2.63;;;-1.40;99.90;;;;;;8473222;27;20199;-67
2022/01/18 02:25:47;;;;;;;12.90;2.70;;;-1.40;99.90;;;;;;8472389;27;20630;-67
2022/01/18 02:29:48;;;;;;;12.90;2.83;;;-1.40;99.90;;;;;;8480373;27;20282;-67
2022/01/18 02:33:49;;;;;;;17.20;3.10;;;-1.40;99.90;;;;;;8474679;27;20171;-68
2022/01/18 02:37:53;;;;;;;13.90;2.67;;;-1.40;99.90;;;;;;8483028;27;20287;-69
2022/01/18 02:42:03;;;;;;;16.23;3.47;;;-1.40;99.90;;;;;;8467923;27;20181;-67
2022/01/18 02:46:04;;;;;;;17.93;3.43;;;-1.40;99.90;;;;;;8487031;27;20310;-67
2022/01/18 02:50:05;;;;;;;16.23;3.40;;;-1.30;99.90;;;;;;8487118;27;20555;-67
2022/01/18 02:54:09;;;;;;;20.57;3.10;;;-1.30;99.90;;;;;;8481446;27;20208;-67
2022/01/18 02:58:10;;;;;;;14.70;3.67;;;-1.30;99.90;;;;;;8467557;27;20227;-67
2022/01/18 03:06:42;;;;;;;16.53;2.50;;;-1.20;99.90;;;;;;8483009;27;20189;-67
2022/01/18 03:10:43;;;;;;;20.57;3.37;;;-1.20;99.90;;;;;;8483482;27;20180;-67
2022/01/18 03:14:44;;;;;;;16.90;3.43;;;-1.30;99.90;;;;;;8476391;27;20321;-67
2022/01/18 03:18:45;;;;;;;6.93;2.17;;;-1.30;99.90;;;;;;8470371;27;20204;-67
2022/01/18 03:22:49;;;;;;;23.07;3.70;;;-1.30;99.90;;;;;;8463390;27;20269;-66
2022/01/18 03:31:08;;;;;;;12.27;2.90;;;-1.30;99.90;;;;;;8479143;27;20670;-66
2022/01/18 03:35:10;;;;;;;14.43;2.87;;;-1.30;99.90;;;;;;8487256;27;20178;-67
2022/01/18 03:39:11;;;;;;;13.43;3.37;;;-1.30;99.90;;;;;;8481062;27;20186;-66
2022/01/18 03:43:14;;;;;;;15.50;3.87;;;-1.30;99.90;;;;;;8486216;27;20501;-67
2022/01/18 03:47:16;;;;;;;20.87;4.27;;;-1.40;99.90;;;;;;8482851;27;20214;-68
2022/01/18 03:51:17;;;;;;;13.53;3.13;;;-1.40;99.90;;;;;;8469920;27;20185;-66
2022/01/18 03:55:21;;;;;;;20.20;3.10;;;-1.40;99.90;;;;;;8486006;27;20180;-66
2022/01/18 03:59:21;;;;;;;15.07;2.77;;;-1.30;99.90;;;;;;8477202;27;20247;-67
2022/01/18 04:03:23;;;;;;;14.37;3.20;;;-1.30;99.90;;;;;;8471657;27;20213;-66
2022/01/18 04:07:23;;;;;;;17.90;2.80;;;-1.30;99.90;;;;;;8486865;27;20265;-66
2022/01/18 04:11:24;;;;;;;19.40;3.53;;;-1.30;99.90;;;;;;8472310;28;20185;-66
2022/01/18 04:15:25;;;;;;;16.87;3.47;;;-1.30;99.90;;;;;;8470141;28;20209;-66
2022/01/18 04:28:21;;;;;;;16.63;4.23;;;-1.40;99.90;;;;;;8459272;28;20211;-67
2022/01/18 04:32:12;;;;;;;21.43;4.63;;;-1.30;99.90;;;;;;8477259;28;20204;-66
2022/01/18 04:36:13;;;;;;;30.87;5.83;;;-1.40;99.90;;;;;;8460186;28;20248;-67
2022/01/18 04:40:17;;;;;;;17.23;4.53;;;-1.30;99.90;;;;;;8460761;28;20183;-67
2022/01/18 04:48:37;;;;;;;18.43;5.17;;;-1.30;99.90;;;;;;8473474;27;20294;-67
2022/01/18 04:52:38;;;;;;;19.43;5.60;;;-1.30;99.90;;;;;;8482978;28;20181;-66
2022/01/18 05:00:40;;;;;;;32.17;7.43;;;-1.30;99.90;;;;;;8483422;27;20258;-67
2022/01/18 05:04:43;;;;;;;28.93;6.37;;;-1.20;99.90;;;;;;8474000;27;20208;-68
2022/01/18 05:08:44;;;;;;;24.63;6.53;;;-1.10;99.90;;;;;;8476072;27;20230;-67
2022/01/18 05:12:47;;;;;;;31.40;6.27;;;-1.00;99.90;;;;;;8492713;27;20256;-67
2022/01/18 05:25:45;;;;;;;26.87;6.23;;;-0.80;99.90;;;;;;8487145;27;20228;-66
2022/01/18 05:29:46;;;;;;;24.90;6.97;;;-0.80;99.90;;;;;;8484183;27;20289;-66
2022/01/18 05:33:47;;;;;;;26.30;6.37;;;-0.80;99.90;;;;;;8483379;27;20183;-67
2022/01/18 05:37:48;;;;;;;25.90;7.93;;;-0.70;99.90;;;;;;8486661;27;20255;-67
2022/01/18 05:41:49;;;;;;;30.80;8.83;;;-0.70;99.90;;;;;;8483303;27;20233;-67
2022/01/18 05:45:50;;;;;;;26.30;8.03;;;-0.70;99.90;;;;;;8491703;27;20208;-68
2022/01/18 05:49:51;;;;;;;28.43;7.93;;;-0.70;99.90;;;;;;8491110;27;20178;-67
2022/01/18 05:53:52;;;;;;;21.43;7.57;;;-0.60;99.90;;;;;;8481230;27;20189;-68
2022/01/18 05:57:53;;;;;;;28.63;8.07;;;-0.60;99.90;;;;;;8488954;27;20277;-67
2022/01/18 06:02:02;;;;;;;27.80;7.93;;;-0.60;99.90;;;;;;8475774;27;20272;-67
2022/01/18 06:10:22;;;;;;;22.53;7.93;;;-0.50;99.90;;;;;;8489545;27;20279;-68
2022/01/18 06:14:23;;;;;;;27.60;8.13;;;-0.40;99.90;;;;;;8474408;27;20212;-68
2022/01/18 06:18:24;;;;;;;19.00;8.33;;;-0.40;99.90;;;;;;8484800;27;20210;-67
2022/01/18 06:22:25;;;;;;;19.10;8.20;;;-0.40;99.90;;;;;;8474568;27;20186;-67
2022/01/18 06:26:25;;;;;;;26.00;7.77;;;-0.40;99.90;;;;;;8467135;27;20184;-67
2022/01/18 06:30:26;;;;;;;38.07;8.93;;;-0.30;99.90;;;;;;8479047;27;20209;-67
2022/01/18 06:34:28;;;;;;;31.03;7.87;;;-0.30;99.90;;;;;;8488387;27;20191;-68
2022/01/18 06:38:29;;;;;;;22.53;7.57;;;-0.30;99.90;;;;;;8469026;27;20271;-67
2022/01/18 06:42:30;;;;;;;26.77;8.90;;;-0.30;99.90;;;;;;8488291;27;20182;-67
2022/01/18 06:46:31;;;;;;;30.97;7.60;;;-0.20;99.90;;;;;;8486872;27;20201;-68
2022/01/18 06:50:32;;;;;;;25.70;8.20;;;-0.20;99.90;;;;;;8461800;27;20581;-67
2022/01/18 06:54:32;;;;;;;26.90;7.57;;;-0.20;99.90;;;;;;8474009;27;20216;-68
2022/01/18 06:58:33;;;;;;;21.37;8.70;;;-0.20;99.90;;;;;;8489937;27;20506;-67
2022/01/18 07:02:34;;;;;;;22.97;7.80;;;-0.20;99.90;;;;;;8483084;27;20182;-68
2022/01/18 07:06:35;;;;;;;31.47;7.83;;;-0.20;99.90;;;;;;8459466;27;20256;-68
2022/01/18 07:10:36;;;;;;;26.27;8.50;;;-0.20;99.90;;;;;;8477677;27;20230;-68
2022/01/18 07:14:41;;;;;;;21.53;7.37;;;-0.20;99.90;;;;;;8488051;27;20190;-70
2022/01/18 07:18:42;;;;;;;21.50;8.10;;;-0.20;99.90;;;;;;8482312;27;20213;-69
2022/01/18 07:22:43;;;;;;;22.10;7.27;;;-0.20;99.90;;;;;;8475363;27;20211;-68
2022/01/18 07:26:46;;;;;;;25.70;6.53;;;-0.20;99.90;;;;;;8483958;27;20304;-68
2022/01/18 07:30:48;;;;;;;17.67;6.67;;;-0.20;99.90;;;;;;8481510;27;20196;-68
2022/01/18 07:34:54;;;;;;;20.13;7.20;;;-0.10;99.90;;;;;;8484485;27;20175;-68
2022/01/18 07:38:55;;;;;;;20.83;6.40;;;-0.10;99.90;;;;;;8486194;27;20184;-67
2022/01/18 07:42:59;;;;;;;25.27;6.67;;;-0.10;99.90;;;;;;8456800;27;20252;-68
2022/01/18 07:47:00;;;;;;;23.40;6.73;;;-0.10;99.90;;;;;;8480606;27;20182;-68
2022/01/18 07:51:01;;;;;;;22.50;6.27;;;-0.10;99.90;;;;;;8488227;27;20190;-67
2022/01/18 07:55:04;;;;;;;21.50;6.30;;;-0.10;99.90;;;;;;8478922;27;20186;-68
2022/01/18 07:59:05;;;;;;;23.73;6.17;;;0.00;99.90;;;;;;8475650;27;20199;-68
2022/01/18 08:03:05;;;;;;;21.53;5.87;;;0.00;99.90;;;;;;8472147;27;20210;-69
2022/01/18 08:07:07;;;;;;;15.07;6.10;;;0.00;99.90;;;;;;8469443;27;20275;-68
2022/01/18 08:11:08;;;;;;;25.63;5.87;;;0.00;99.90;;;;;;8481801;27;20189;-68
2022/01/18 08:15:19;;;;;;;20.37;5.77;;;0.00;99.90;;;;;;8475293;28;20210;-68
2022/01/18 08:19:20;;;;;;;16.30;5.53;;;0.10;99.90;;;;;;8474102;28;20251;-69
2022/01/18 08:23:20;;;;;;;28.27;7.03;;;0.10;99.90;;;;;;8463372;28;20509;-68
2022/01/18 08:27:22;;;;;;;19.43;6.10;;;0.00;99.90;;;;;;8485990;28;20213;-69
2022/01/18 08:31:23;;;;;;;23.47;6.40;;;0.10;99.90;;;;;;8468731;28;20506;-68
2022/01/18 08:35:25;;;;;;;25.77;6.60;;;0.10;99.90;;;;;;8484708;27;20183;-67
2022/01/18 08:39:26;;;;;;;24.13;6.03;;;0.10;99.90;;;;;;8475105;28;20277;-67
2022/01/18 08:43:31;;;;;;;21.33;6.43;;;0.10;99.90;;;;;;8491954;27;20210;-68
2022/01/18 08:47:32;;;;;;;32.20;7.33;;;0.10;99.90;;;;;;8491377;27;20190;-68
2022/01/18 08:51:33;;;;;;;35.57;7.67;;;0.10;99.90;;;;;;8492453;27;20187;-68
2022/01/18 08:55:35;;;;;;;25.80;6.93;;;0.10;99.90;;;;;;8484891;27;20191;-69
2022/01/18 08:59:36;;;;;;;19.90;6.97;;;0.10;99.90;;;;;;8480743;27;20209;-68
2022/01/18 09:03:37;;;;;;;25.53;7.43;;;0.20;99.90;;;;;;8486283;27;20203;-67
2022/01/18 09:07:39;;;;;;;24.87;6.97;;;0.20;99.90;;;;;;8471289;27;20193;-68
2022/01/18 09:11:40;;;;;;;22.07;6.83;;;0.20;99.90;;;;;;8478516;27;20197;-68
2022/01/18 09:15:42;;;;;;;24.37;6.93;;;0.20;99.90;;;;;;8457662;28;20436;-68
2022/01/18 09:19:42;;;;;;;22.37;6.93;;;0.30;99.90;;;;;;8471842;27;20178;-68
2022/01/18 09:23:43;;;;;;;21.63;7.57;;;0.40;99.90;;;;;;8482245;27;20214;-68
2022/01/18 09:27:44;;;;;;;24.27;7.23;;;0.40;99.90;;;;;;8483237;27;20294;-68
2022/01/18 09:31:45;;;;;;;21.53;7.60;;;0.50;99.90;;;;;;8485768;27;20243;-68
2022/01/18 09:35:46;;;;;;;19.07;6.30;;;0.50;99.90;;;;;;8457135;28;20187;-68
2022/01/18 09:39:47;;;;;;;22.20;7.17;;;0.50;99.90;;;;;;8483564;27;20187;-68
2022/01/18 09:43:48;;;;;;;25.70;7.03;;;0.60;99.90;;;;;;8490028;27;20213;-68
2022/01/18 09:47:51;;;;;;;19.07;7.53;;;0.60;99.90;;;;;;8489485;27;20208;-68
2022/01/18 09:51:51;;;;;;;21.87;6.40;;;0.80;99.90;;;;;;8492262;27;20179;-68
2022/01/18 09:55:53;;;;;;;20.43;6.50;;;0.80;99.90;;;;;;8469934;27;20202;-67
2022/01/18 09:59:54;;;;;;;26.33;8.00;;;0.80;99.90;;;;;;8490589;27;20187;-68
2022/01/18 10:04:16;;;;;;;23.93;6.20;;;0.80;99.90;;;;;;8486818;27;20205;-68
2022/01/18 10:08:18;;;;;;;17.57;6.80;;;0.90;99.90;;;;;;8474430;27;20196;-69
2022/01/18 10:12:22;;;;;;;20.97;6.53;;;0.90;99.90;;;;;;8486867;27;20175;-66
2022/01/18 10:16:23;;;;;;;19.77;5.80;;;1.00;99.90;;;;;;8489597;27;20214;-68
2022/01/18 10:20:24;;;;;;;19.00;6.03;;;1.10;99.90;;;;;;8474432;27;20195;-67
2022/01/18 10:24:26;;;;;;;21.00;5.97;;;1.10;99.90;;;;;;8470478;27;20248;-68
2022/01/18 10:28:29;;;;;;;23.83;6.77;;;1.10;99.90;;;;;;8487158;27;20187;-66
2022/01/18 10:32:37;;;;;;;17.43;6.23;;;1.30;99.90;;;;;;8464258;27;20194;-68
2022/01/18 10:36:55;;;;;;;17.07;4.77;;;1.40;99.90;;;;;;8456421;27;20187;-67
2022/01/18 10:40:56;;;;;;;20.30;5.00;;;1.40;99.90;;;;;;8481777;27;20193;-66
2022/01/18 10:44:59;;;;;;;15.63;4.70;;;1.20;99.90;;;;;;8470573;27;20211;-67
2022/01/18 10:49:00;;;;;;;18.57;4.80;;;1.20;99.90;;;;;;8489209;27;20183;-69
2022/01/18 10:53:15;;;;;;;17.03;4.57;;;1.30;99.90;;;;;;8487394;27;20213;-68
2022/01/18 10:57:28;;;;;;;18.63;4.67;;;1.30;99.90;;;;;;8477176;27;20224;-68
2022/01/18 11:01:29;;;;;;;18.70;4.40;;;1.50;99.90;;;;;;8470001;27;20194;-69
2022/01/18 11:05:32;;;;;;;14.73;4.27;;;1.50;99.90;;;;;;8471949;27;20290;-70
2022/01/18 11:09:34;;;;;;;15.70;3.73;;;1.50;99.90;;;;;;8462983;27;20180;-69
2022/01/18 11:13:36;;;;;;;20.90;3.93;;;1.60;99.90;;;;;;8476751;27;20288;-70
2022/01/18 11:17:40;;;;;;;14.17;4.17;;;1.60;99.90;;;;;;8474885;27;20207;-70
2022/01/18 11:21:41;;;;;;;12.13;4.00;;;1.60;99.90;;;;;;8484160;27;20179;-70
2022/01/18 11:25:42;;;;;;;10.53;3.50;;;1.60;99.90;;;;;;8479942;27;20285;-71
2022/01/18 11:29:47;;;;;;;9.47;3.17;;;1.70;99.90;;;;;;8479539;27;20179;-70
2022/01/18 11:33:58;;;;;;;17.27;3.93;;;1.80;99.90;;;;;;8480051;27;20193;-71
2022/01/18 11:38:15;;;;;;;14.47;2.97;;;1.90;99.90;;;;;;8478518;27;20239;-68
2022/01/18 11:42:16;;;;;;;13.80;3.27;;;1.90;99.90;;;;;;8474695;27;20469;-69
2022/01/18 11:46:21;;;;;;;13.90;3.00;;;1.90;99.90;;;;;;8469576;27;20214;-70
2022/01/18 11:50:30;;;;;;;12.27;3.50;;;1.80;99.90;;;;;;8453855;28;20183;-70
2022/01/18 11:59:14;;;;;;;11.03;2.67;;;2.10;99.90;;;;;;8468310;27;20213;-68
2022/01/18 12:03:48;;;;;;;11.20;2.77;;;1.90;99.90;;;;;;8485928;27;20199;-69
2022/01/18 12:07:51;;;;;;;11.10;3.53;;;2.00;99.90;;;;;;8486482;27;20176;-69
2022/01/18 12:11:52;;;;;;;12.20;3.90;;;2.10;99.90;;;;;;8478187;27;21049;-69
2022/01/18 12:15:56;;;;;;;17.47;3.73;;;2.30;99.90;;;;;;8477420;27;20207;-69
2022/01/18 12:19:57;;;;;;;17.37;3.57;;;2.50;99.90;;;;;;8487584;27;20186;-69
2022/01/18 12:24:13;;;;;;;13.60;3.50;;;2.50;99.90;;;;;;8471934;28;20195;-71
2022/01/18 12:28:45;;;;;;;7.30;2.83;;;2.50;99.90;;;;;;8487205;28;20176;-70
2022/01/18 12:32:56;;;;;;;14.13;3.57;;;2.40;99.90;;;;;;8473480;28;20518;-69
2022/01/18 12:37:07;;;;;;;10.33;3.13;;;2.40;99.90;;;;;;8483882;27;20250;-69
2022/01/18 12:41:08;;;;;;;8.57;3.23;;;2.50;99.90;;;;;;8455282;28;20208;-69
2022/01/18 12:45:16;;;;;;;8.97;2.67;;;2.50;99.90;;;;;;8470152;27;20210;-69
2022/01/18 12:49:18;;;;;;;11.10;3.17;;;2.60;99.90;;;;;;8487135;27;20205;-70
2022/01/18 12:53:28;;;;;;;10.57;3.00;;;2.70;99.90;;;;;;8484512;28;20235;-70
2022/01/18 12:57:32;;;;;;;11.50;2.83;;;2.60;99.90;;;;;;8485909;28;20248;-66
2022/01/18 13:01:33;;;;;;;10.00;2.70;;;2.70;99.90;;;;;;8475314;28;20201;-70
2022/01/18 13:05:42;;;;;;;10.07;3.20;;;2.70;99.90;;;;;;8467686;28;20214;-69
2022/01/18 13:10:02;;;;;;;11.30;3.23;;;2.60;99.90;;;;;;8463623;28;20229;-69
2022/01/18 13:14:12;;;;;;;10.37;2.70;;;2.70;99.90;;;;;;8462355;27;20217;-67
2022/01/18 13:22:59;;;;;;;10.53;3.40;;;2.80;99.90;;;;;;8452652;28;20203;-69
2022/01/18 13:27:47;;;;;;;6.50;2.60;;;2.70;99.90;;;;;;8483870;28;20630;-70
2022/01/18 13:31:26;;;;;;;10.10;2.70;;;2.50;99.90;;;;;;8462426;27;20191;-69
2022/01/18 13:35:30;;;;;;;10.73;3.47;;;2.40;99.90;;;;;;8482823;27;20185;-67
2022/01/18 13:39:44;;;;;;;12.07;3.70;;;2.50;99.90;;;;;;8488047;27;20185;-66
2022/01/18 13:43:47;;;;;;;7.60;2.70;;;2.40;99.90;;;;;;8466386;27;20204;-69
2022/01/18 13:47:58;;;;;;;10.73;2.70;;;2.20;99.90;;;;;;8456224;28;20180;-70
2022/01/18 13:52:06;;;;;;;13.10;3.13;;;2.30;99.90;;;;;;8486827;27;20274;-69
2022/01/18 13:56:13;;;;;;;8.13;3.07;;;2.30;99.90;;;;;;8484931;27;20247;-68
2022/01/18 14:00:14;;;;;;;13.43;2.90;;;2.40;99.90;;;;;;8475089;27;20183;-70
2022/01/18 14:04:19;;;;;;;8.63;2.53;;;2.40;99.90;;;;;;8480835;27;20203;-69
2022/01/18 14:08:20;;;;;;;12.60;2.97;;;2.30;99.90;;;;;;8460051;27;20252;-70
2022/01/18 14:12:20;;;;;;;14.27;2.43;;;2.30;99.90;;;;;;8455909;27;20176;-69
2022/01/18 14:16:25;;;;;;;13.90;2.80;;;2.20;99.90;;;;;;8454385;27;20234;-71
2022/01/18 14:20:31;;;;;;;15.30;3.90;;;2.10;99.90;;;;;;8480003;27;20175;-70
2022/01/18 14:24:39;;;;;;;6.77;2.50;;;2.10;99.90;;;;;;8479748;27;20215;-67
2022/01/18 14:28:39;;;;;;;10.17;3.70;;;2.10;99.90;;;;;;8480686;27;20183;-70
2022/01/18 14:32:42;;;;;;;11.80;2.73;;;2.10;99.90;;;;;;8474682;27;20184;-69
2022/01/18 14:36:54;;;;;;;12.73;2.60;;;2.10;99.90;;;;;;8454570;28;20207;-69
2022/01/18 14:40:54;;;;;;;13.37;3.03;;;2.10;99.90;;;;;;8487101;27;20186;-69
2022/01/18 14:49:00;;;;;;;8.77;2.60;;;2.00;99.90;;;;;;8487909;27;20183;-69
2022/01/18 14:53:02;;;;;;;6.60;2.20;;;2.00;99.90;;;;;;8484339;27;20187;-69
2022/01/18 14:57:03;;;;;;;7.00;2.80;;;1.90;99.90;;;;;;8474599;27;20206;-70
2022/01/18 15:01:05;;;;;;;8.23;2.33;;;1.80;99.90;;;;;;8478359;27;20339;-70
2022/01/18 15:05:07;;;;;;;10.07;3.57;;;1.70;99.90;;;;;;8475014;27;20242;-69
2022/01/18 15:09:08;;;;;;;11.60;4.27;;;1.70;99.90;;;;;;8479763;27;20184;-69
2022/01/18 15:13:09;;;;;;;12.00;3.77;;;1.60;99.90;;;;;;8462491;27;20196;-69
2022/01/18 15:17:11;;;;;;;16.70;4.77;;;1.60;99.90;;;;;;8469954;27;20218;-69
2022/01/18 15:21:11;;;;;;;13.03;5.20;;;1.60;99.90;;;;;;8481156;27;20213;-69
2022/01/18 15:25:13;;;;;;;13.93;3.53;;;1.50;99.90;;;;;;8469367;27;20294;-69
2022/01/18 15:29:15;;;;;;;7.30;2.60;;;1.50;99.90;;;;;;8465001;27;20184;-69
2022/01/18 15:33:16;;;;;;;11.93;3.37;;;1.50;99.90;;;;;;8462840;27;20199;-69
2022/01/18 15:37:17;;;;;;;10.60;3.33;;;1.50;99.90;;;;;;8454003;28;20184;-69
2022/01/18 15:41:18;;;;;;;14.10;4.57;;;1.50;99.90;;;;;;8469205;27;20259;-69
2022/01/18 15:45:19;;;;;;;10.87;4.83;;;1.50;99.90;;;;;;8478257;27;20206;-70
2022/01/18 15:49:23;;;;;;;9.67;4.63;;;1.50;99.90;;;;;;8485974;27;20235;-70
2022/01/18 15:53:24;;;;;;;12.57;5.00;;;1.40;99.90;;;;;;8475017;27;20264;-68
2022/01/18 15:57:25;;;;;;;13.33;4.13;;;1.30;99.90;;;;;;8485021;27;20293;-68
2022/01/18 16:01:26;;;;;;;13.13;4.40;;;1.30;99.90;;;;;;8481749;27;20194;-68
2022/01/18 16:05:27;;;;;;;14.60;3.57;;;1.30;99.90;;;;;;8467599;27;20228;-68
2022/01/18 16:09:28;;;;;;;8.30;3.53;;;1.30;99.90;;;;;;8474434;27;20183;-68
2022/01/18 16:13:29;;;;;;;13.27;4.27;;;1.30;99.90;;;;;;8468469;27;20254;-68
2022/01/18 16:17:30;;;;;;;12.37;4.10;;;1.40;99.90;;;;;;8486844;27;20202;-68
2022/01/18 16:21:31;;;;;;;10.83;4.70;;;1.40;99.90;;;;;;8482683;27;20442;-68
2022/01/18 16:25:32;;;;;;;12.50;4.30;;;1.50;99.90;;;;;;8459952;28;20286;-67
2022/01/18 16:29:33;;;;;;;8.00;3.77;;;1.50;99.90;;;;;;8480641;28;20188;-68
2022/01/18 16:33:34;;;;;;;9.23;3.07;;;1.50;99.90;;;;;;8476657;27;20179;-67
2022/01/18 16:37:36;;;;;;;14.57;3.50;;;1.50;99.90;;;;;;8479734;27;20684;-68
2022/01/18 16:41:37;;;;;;;10.13;3.43;;;1.50;99.90;;;;;;8465533;28;20184;-68
2022/01/18 16:45:38;;;;;;;15.30;3.90;;;1.50;99.90;;;;;;8451229;28;20229;-68
2022/01/18 16:49:39;;;;;;;9.53;3.33;;;1.50;99.90;;;;;;8451433;28;20483;-68
2022/01/18 16:53:41;;;;;;;9.10;3.63;;;1.50;99.90;;;;;;8454692;28;20252;-68
2022/01/18 16:57:42;;;;;;;10.40;4.10;;;1.50;99.90;;;;;;8482361;27;20199;-68
2022/01/18 17:01:43;;;;;;;10.37;4.37;;;1.60;99.90;;;;;;8478175;27;20225;-68
2022/01/18 17:05:45;;;;;;;10.23;3.00;;;1.60;99.90;;;;;;8484276;27;20210;-67
2022/01/18 17:09:47;;;;;;;10.50;3.57;;;1.60;99.90;;;;;;8471285;27;20179;-67
2022/01/18 17:13:47;;;;;;;10.20;3.27;;;1.60;99.90;;;;;;8483457;27;20175;-67
2022/01/18 17:17:48;;;;;;;7.17;2.60;;;1.70;99.90;;;;;;8475427;27;20209;-67
2022/01/18 17:21:52;;;;;;;13.00;3.30;;;1.70;99.90;;;;;;8484410;27;20266;-67
2022/01/18 17:25:53;;;;;;;12.30;4.20;;;1.70;99.90;;;;;;8460495;27;20196;-67
2022/01/18 17:29:54;;;;;;;10.47;3.60;;;1.70;99.90;;;;;;8472938;27;20175;-66
2022/01/18 17:33:55;;;;;;;15.40;3.73;;;1.70;99.90;;;;;;8477045;27;20240;-67
2022/01/18 17:37:56;;;;;;;8.20;2.57;;;1.70;99.90;;;;;;8482199;27;20256;-68
2022/01/18 17:41:57;;;;;;;7.60;2.60;;;1.80;99.90;;;;;;8483762;27;20286;-67
2022/01/18 17:45:59;;;;;;;3.83;2.17;;;1.80;99.90;;;;;;8466252;27;20230;-67
2022/01/18 17:50:00;;;;;;;7.07;2.60;;;1.80;99.90;;;;;;8471238;27;20179;-67
2022/01/18 17:54:01;;;;;;;6.47;2.23;;;1.80;99.90;;;;;;8483599;27;20218;-67
2022/01/18 17:58:03;;;;;;;5.43;2.60;;;1.90;99.90;;;;;;8481727;27;20202;-66
2022/01/18 18:02:04;;;;;;;10.20;3.00;;;1.90;99.90;;;;;;8473904;27;20184;-67
2022/01/18 18:06:04;;;;;;;10.47;3.00;;;1.80;99.90;;;;;;8482705;27;20239;-67
2022/01/18 18:10:06;;;;;;;7.27;2.70;;;1.90;99.90;;;;;;8473993;27;20175;-67
2022/01/18 18:14:07;;;;;;;10.23;2.60;;;1.90;99.90;;;;;;8470492;27;20179;-67
2022/01/18 18:18:08;;;;;;;6.17;2.50;;;1.90;99.90;;;;;;8465715;27;20694;-68
2022/01/18 18:22:09;;;;;;;7.00;2.73;;;1.90;99.90;;;;;;8458785;27;20183;-67
2022/01/18 18:26:09;;;;;;;7.80;3.10;;;1.90;99.90;;;;;;8487880;27;20217;-67
2022/01/18 18:30:13;;;;;;;7.43;2.50;;;1.90;99.90;;;;;;8475618;27;20300;-67
2022/01/18 18:34:14;;;;;;;8.13;3.00;;;1.90;99.90;;;;;;8463188;27;20188;-67
2022/01/18 18:38:18;;;;;;;9.33;3.57;;;2.00;99.90;;;;;;8460231;27;20254;-67
2022/01/18 18:42:26;;;;;;;10.00;3.50;;;2.00;99.90;;;;;;8490607;27;20183;-67
2022/01/18 18:46:26;;;;;;;14.43;5.47;;;2.00;99.90;;;;;;8488853;27;20196;-67
2022/01/18 18:50:28;;;;;;;11.87;3.67;;;2.00;99.90;;;;;;8470339;27;20178;-67
2022/01/18 18:54:30;;;;;;;7.53;2.90;;;2.10;99.90;;;;;;8471635;27;20184;-67
2022/01/18 18:58:52;;;;;;;5.07;2.50;;;2.00;99.90;;;;;;8483101;27;20203;-67
2022/01/18 19:07:23;;;;;;;8.47;2.90;;;2.10;99.90;;;;;;8468728;27;20187;-67
2022/01/18 19:11:24;;;;;;;8.00;2.50;;;2.10;99.90;;;;;;8486836;27;20225;-67
2022/01/18 19:15:27;;;;;;;7.17;3.57;;;2.10;99.90;;;;;;8479566;27;20331;-66
2022/01/18 19:19:28;;;;;;;9.47;2.60;;;2.10;99.90;;;;;;8452748;27;20267;-67
2022/01/18 19:23:31;;;;;;;10.17;4.40;;;2.10;99.90;;;;;;8466027;27;20207;-67
2022/01/18 19:27:32;;;;;;;14.37;2.33;;;2.10;99.90;;;;;;8477862;27;20252;-67
2022/01/18 19:31:37;;;;;;;12.60;3.00;;;2.10;99.90;;;;;;8480732;27;20187;-67
2022/01/18 19:35:42;;;;;;;7.43;1.90;;;2.10;99.90;;;;;;8487499;27;20216;-67
2022/01/18 19:39:43;;;;;;;10.27;2.20;;;2.10;99.90;;;;;;8482643;27;20180;-67
2022/01/18 19:43:45;;;;;;;7.37;1.70;;;2.10;99.90;;;;;;8452648;28;20277;-68
2022/01/18 19:47:47;;;;;;;9.20;2.37;;;2.10;99.90;;;;;;8463967;27;20233;-68
2022/01/18 19:51:48;;;;;;;6.13;2.03;;;2.10;99.90;;;;;;8482198;27;20179;-67
2022/01/18 19:55:49;;;;;;;6.03;1.90;;;2.10;99.90;;;;;;8462415;27;20195;-67
2022/01/18 19:59:50;;;;;;;3.13;1.80;;;2.10;99.90;;;;;;8472069;27;20207;-67
2022/01/18 20:03:52;;;;;;;7.70;2.27;;;2.10;99.90;;;;;;8473267;27;20202;-67
2022/01/18 20:07:53;;;;;;;5.87;1.77;;;2.20;99.90;;;;;;8470057;27;20230;-67
2022/01/18 20:11:54;;;;;;;6.17;1.90;;;2.20;99.90;;;;;;8463013;28;20175;-67
2022/01/18 20:15:55;;;;;;;5.07;1.97;;;2.20;99.90;;;;;;8452098;28;20195;-67
2022/01/18 20:19:57;;;;;;;5.83;2.20;;;2.20;99.90;;;;;;8470353;27;20180;-67
2022/01/18 20:23:58;;;;;;;8.33;2.17;;;2.30;99.90;;;;;;8467396;28;20203;-67
2022/01/18 20:27:59;;;;;;;6.43;2.60;;;2.30;99.90;;;;;;8453878;28;20211;-67
2022/01/18 20:32:01;;;;;;;10.97;3.33;;;2.40;99.90;;;;;;8475719;28;20175;-67
2022/01/18 20:36:03;;;;;;;6.23;2.50;;;2.40;99.90;;;;;;8484279;28;20295;-68
2022/01/18 20:40:27;;;;;;;4.47;2.60;;;2.40;99.90;;;;;;8478259;27;20178;-66
2022/01/18 20:44:29;;;;;;;6.20;2.67;;;2.40;99.90;;;;;;8493137;27;20262;-67
2022/01/18 20:48:30;;;;;;;6.43;2.70;;;2.40;99.90;;;;;;8490812;27;20198;-67
2022/01/18 20:52:33;;;;;;;7.17;3.00;;;2.40;99.90;;;;;;8469451;27;20183;-67
2022/01/18 20:56:34;;;;;;;8.97;3.63;;;2.40;99.90;;;;;;8484170;27;20264;-67
2022/01/18 21:00:35;;;;;;;5.30;3.07;;;2.40;99.90;;;;;;8477424;27;20188;-67
2022/01/18 21:04:36;;;;;;;7.37;3.27;;;2.50;99.90;;;;;;8479429;27;20227;-67
2022/01/18 21:08:37;;;;;;;5.37;2.60;;;2.50;99.90;;;;;;8479078;27;20178;-66
2022/01/18 21:12:38;;;;;;;6.37;3.17;;;2.50;99.90;;;;;;8469197;27;20183;-67
2022/01/18 21:16:40;;;;;;;13.53;3.93;;;2.50;99.90;;;;;;8490810;27;20500;-68
2022/01/18 21:20:41;;;;;;;5.40;3.20;;;2.50;99.90;;;;;;8472641;27;20182;-68
2022/01/18 21:24:42;;;;;;;10.50;3.63;;;2.50;99.90;;;;;;8477716;27;20282;-67
2022/01/18 21:28:43;;;;;;;7.63;3.13;;;2.50;99.90;;;;;;8484318;27;20195;-67
2022/01/18 21:32:44;;;;;;;6.37;3.40;;;2.50;99.90;;;;;;8464218;27;20214;-67
2022/01/18 21:36:44;;;;;;;7.60;3.03;;;2.60;99.90;;;;;;8489159;27;20228;-66
2022/01/18 21:40:46;;;;;;;9.37;3.00;;;2.60;99.90;;;;;;8479234;27;20226;-67
2022/01/18 21:44:48;;;;;;;8.27;3.63;;;2.70;99.90;;;;;;8492007;27;20203;-67
2022/01/18 21:48:48;;;;;;;9.33;3.60;;;2.60;99.90;;;;;;8481287;27;20275;-67
2022/01/18 21:52:49;;;;;;;9.10;3.10;;;2.60;99.90;;;;;;8487795;27;20171;-67
2022/01/18 21:56:50;;;;;;;6.77;2.93;;;2.70;99.90;;;;;;8474614;27;20235;-67
2022/01/18 22:00:51;;;;;;;5.80;2.90;;;2.70;99.90;;;;;;8475476;27;20205;-68
2022/01/18 22:04:53;;;;;;;6.83;3.10;;;2.70;99.90;;;;;;8475901;27;20325;-66
2022/01/18 22:08:53;;;;;;;6.73;3.13;;;2.70;99.90;;;;;;8473251;27;20186;-67
2022/01/18 22:12:54;;;;;;;6.83;3.13;;;2.70;99.90;;;;;;8479980;27;20186;-67
2022/01/18 22:16:56;;;;;;;8.13;3.80;;;2.70;99.90;;;;;;8478133;27;20260;-67
2022/01/18 22:20:57;;;;;;;8.60;4.30;;;2.70;99.90;;;;;;8480543;27;20545;-67
2022/01/18 22:24:58;;;;;;;11.60;5.10;;;2.70;99.90;;;;;;8468744;27;20239;-67